Time;durP1;ratioP1;P1;durP2;ratioP2;P2;SDS_P1;SDS_P2;PMS_P1;PMS_P2;Temp;Humidity;BMP_temperature;BMP_pressure;BME280_temperature;BME280_humidity;BME280_pressure;Samples;Min_cycle;Max_cycle;Signal;HPM_P1;HPM_P2
2022/04/15 00:00:36;;;;;;;5.20;2.80;;;;;;;-145.69;100.00;72266.09;5074559;28;20237;-75
2022/04/15 00:03:05;;;;;;;5.43;2.47;;;;;;;-145.69;100.00;72266.09;5074362;28;20209;-75
2022/04/15 00:05:36;;;;;;;6.30;3.07;;;;;;;-145.69;100.00;72254.16;5074392;28;20202;-75
2022/04/15 00:08:04;;;;;;;8.20;2.77;;;;;;;-145.69;100.00;72248.19;5071017;28;20233;-75
2022/04/15 00:10:31;;;;;;;7.93;2.97;;;;;;;-145.69;100.00;72234.25;5073537;28;20202;-75
2022/04/15 00:12:58;;;;;;;4.47;1.90;;;;;;;-145.69;100.00;72234.25;5074150;28;20657;-75
2022/04/15 00:15:25;;;;;;;6.95;2.45;;;;;;;-145.69;100.00;72234.25;5073196;28;20859;-76
2022/04/15 00:17:55;;;;;;;3.20;1.93;;;;;;;-145.69;100.00;72234.25;5074159;28;20252;-75
2022/04/15 00:20:22;;;;;;;5.07;2.30;;;;;;;-145.69;100.00;72230.25;5073957;28;20206;-75
2022/04/15 00:22:49;;;;;;;6.87;3.00;;;;;;;-145.69;100.00;72222.31;5073936;28;20207;-75
2022/04/15 00:25:16;;;;;;;4.23;2.03;;;;;;;-145.69;100.00;72222.31;5073900;28;20653;-75
2022/04/15 00:27:46;;;;;;;9.27;2.20;;;;;;;-145.69;100.00;72218.31;5073814;28;20202;-75
2022/04/15 00:30:13;;;;;;;12.50;2.60;;;;;;;-145.69;100.00;72202.41;5073938;28;20211;-75
2022/04/15 00:32:41;;;;;;;10.70;2.50;;;;;;;-145.69;100.00;72192.44;5073669;28;20734;-74
2022/04/15 00:35:09;;;;;;;7.67;2.57;;;;;;;-145.69;100.00;72198.41;5072732;28;20230;-75
2022/04/15 00:37:35;;;;;;;6.87;2.50;;;;;;;-145.69;100.00;72206.38;5073574;28;20206;-75
2022/04/15 00:40:02;;;;;;;4.77;2.07;;;;;;;-145.69;100.00;72222.31;5073568;28;20438;-75
2022/04/15 00:42:30;;;;;;;5.37;2.20;;;;;;;-145.69;100.00;72234.25;5073770;28;20203;-74
2022/04/15 00:44:58;;;;;;;5.30;2.73;;;;;;;-145.69;100.00;72234.25;5073465;28;20199;-75
2022/04/15 00:47:36;;;;;;;4.33;2.30;;;;;;;-145.69;100.00;72230.25;5073629;28;20207;-75
2022/04/15 00:50:03;;;;;;;4.70;2.20;;;;;;;-145.69;100.00;72242.22;5073202;28;20210;-75
2022/04/15 00:52:37;;;;;;;5.60;2.77;;;;;;;-145.69;100.00;72246.19;5073652;28;20554;-75
2022/04/15 00:55:07;;;;;;;5.20;2.50;;;;;;;-145.69;100.00;72252.16;5073406;28;20803;-75
2022/04/15 00:57:38;;;;;;;5.70;3.13;;;;;;;-145.69;100.00;72250.16;5073487;28;20289;-75
2022/04/15 01:00:06;;;;;;;6.80;2.63;;;;;;;-145.69;100.00;72268.06;5073288;28;20232;-75
2022/04/15 01:02:34;;;;;;;5.03;2.60;;;;;;;-145.69;100.00;72270.06;5072822;28;20198;-74
2022/04/15 01:05:02;;;;;;;7.03;2.57;;;;;;;-145.69;100.00;72274.06;5073533;28;20206;-75
2022/04/15 01:07:33;;;;;;;5.07;2.97;;;;;;;-145.69;100.00;72266.09;5073380;28;20248;-75
2022/04/15 01:10:02;;;;;;;7.20;3.40;;;;;;;-145.69;100.00;72274.06;5073397;28;20206;-75
2022/04/15 01:12:30;;;;;;;6.70;3.20;;;;;;;-145.69;100.00;72286.00;5073514;28;20225;-75
2022/04/15 01:15:00;;;;;;;10.40;3.50;;;;;;;-145.69;100.00;72284.00;5073110;28;20300;-75
2022/04/15 01:17:30;;;;;;;7.47;3.10;;;;;;;-145.69;100.00;72282.00;5073447;28;20194;-75
2022/04/15 01:19:57;;;;;;;6.93;2.83;;;;;;;-145.69;100.00;72286.00;5072860;28;20222;-75
2022/04/15 01:22:25;;;;;;;4.20;2.73;;;;;;;-145.69;100.00;72293.94;5072858;28;20187;-75
2022/04/15 01:24:53;;;;;;;11.53;3.43;;;;;;;-145.69;100.00;72286.00;5073108;28;20202;-75
2022/04/15 01:27:23;;;;;;;11.20;3.30;;;;;;;-145.69;100.00;72274.06;5071870;28;20213;-75
2022/04/15 01:29:50;;;;;;;8.83;3.27;;;;;;;-145.69;100.00;72280.03;5073199;28;20282;-75
2022/04/15 01:32:16;;;;;;;10.83;2.90;;;;;;;-145.69;100.00;72299.91;5073082;28;20202;-74
2022/04/15 01:34:43;;;;;;;5.23;2.30;;;;;;;-145.69;100.00;72313.84;5072651;28;20253;-74
2022/04/15 01:37:10;;;;;;;8.77;3.03;;;;;;;-145.69;100.00;72315.84;5071724;28;20225;-74
2022/04/15 01:39:39;;;;;;;11.43;3.20;;;;;;;-145.69;100.00;72325.81;5072819;28;20227;-75
2022/04/15 01:42:11;;;;;;;5.00;2.50;;;;;;;-145.69;100.00;72341.72;5072660;28;20222;-74
2022/04/15 01:44:38;;;;;;;7.33;3.17;;;;;;;-145.69;100.00;72337.75;5072817;28;20252;-74
2022/04/15 01:47:06;;;;;;;7.03;3.37;;;;;;;-145.69;100.00;72341.72;5072900;28;20206;-74
2022/04/15 01:49:32;;;;;;;5.30;3.10;;;;;;;-145.69;100.00;72343.72;5072812;28;20202;-74
2022/04/15 01:51:59;;;;;;;5.17;2.87;;;;;;;-145.69;100.00;72345.69;5072728;28;20207;-74
2022/04/15 01:54:27;;;;;;;8.63;3.70;;;;;;;-145.69;100.00;72325.81;5072473;28;20191;-75
2022/04/15 01:56:58;;;;;;;8.47;3.23;;;;;;;-145.69;100.00;72317.84;5072303;28;20198;-74
2022/04/15 01:59:30;;;;;;;8.70;3.83;;;;;;;-145.69;100.00;72305.91;5072711;28;20226;-74
2022/04/15 02:01:56;;;;;;;11.30;3.43;;;;;;;-145.69;100.00;72309.88;5072640;28;20244;-75
2022/04/15 02:04:23;;;;;;;9.47;3.03;;;;;;;-145.69;100.00;72305.91;5072615;28;20217;-74
2022/04/15 02:06:53;;;;;;;9.43;3.60;;;;;;;-145.69;100.00;72297.94;5072654;28;20210;-74
2022/04/15 02:09:23;;;;;;;8.47;3.43;;;;;;;-145.69;100.00;72301.91;5065142;28;20199;-75
2022/04/15 02:11:54;;;;;;;5.23;2.70;;;;;;;-145.69;100.00;72311.88;5061749;28;20245;-74
2022/04/15 02:14:21;;;;;;;4.43;2.63;;;;;;;-145.69;100.00;72313.84;5072534;28;20242;-75
2022/04/15 02:16:50;;;;;;;9.27;4.23;;;;;;;-145.69;100.00;72305.91;5072275;28;20624;-74
2022/04/15 02:19:16;;;;;;;7.97;3.60;;;;;;;-145.69;100.00;72295.94;5072441;28;20237;-74
2022/04/15 02:21:43;;;;;;;9.47;3.60;;;;;;;-145.69;100.00;72297.94;5072391;28;20218;-74
2022/04/15 02:24:09;;;;;;;10.73;4.33;;;;;;;-145.69;100.00;72299.91;5072626;28;20247;-75
2022/04/15 02:26:36;;;;;;;10.33;4.60;;;;;;;-145.69;100.00;72286.00;5072366;28;20707;-74
2022/04/15 02:29:02;;;;;;;6.57;3.47;;;;;;;-145.69;100.00;72286.00;5072049;28;20203;-74
2022/04/15 02:31:29;;;;;;;7.07;2.80;;;;;;;-145.69;100.00;72289.97;5072229;28;20198;-75
2022/04/15 02:33:56;;;;;;;5.73;2.80;;;;;;;-145.69;100.00;72286.00;5072338;28;20252;-75
2022/04/15 02:36:23;;;;;;;8.80;3.67;;;;;;;-145.69;100.00;72278.03;5072304;28;20207;-74
2022/04/15 02:38:52;;;;;;;6.93;2.73;;;;;;;-145.69;100.00;72280.03;5074046;28;20230;-75
2022/04/15 02:41:18;;;;;;;8.07;3.40;;;;;;;-145.69;100.00;72278.03;5076109;28;20209;-75
2022/04/15 02:43:45;;;;;;;8.53;3.67;;;;;;;-145.69;100.00;72276.03;5075592;28;20508;-74
2022/04/15 02:46:16;;;;;;;5.83;3.27;;;;;;;-145.69;100.00;72270.06;5075670;28;20195;-74
2022/04/15 02:48:42;;;;;;;9.10;3.40;;;;;;;-145.69;100.00;72266.09;5075799;28;20206;-74
2022/04/15 02:51:14;;;;;;;9.50;3.20;;;;;;;-145.69;100.00;72268.06;5075978;28;20225;-74
2022/04/15 02:53:43;;;;;;;7.47;2.80;;;;;;;-145.69;100.00;72270.06;5075949;28;20203;-74
2022/04/15 02:56:09;;;;;;;7.17;3.33;;;;;;;-145.69;100.00;72272.06;5075788;28;20233;-75
2022/04/15 02:58:38;;;;;;;8.27;4.00;;;;;;;-145.69;100.00;72262.09;5075649;28;20260;-74
2022/04/15 03:01:05;;;;;;;10.20;4.30;;;;;;;-145.69;100.00;72252.16;5075561;28;20210;-75
2022/04/15 03:03:33;;;;;;;12.13;4.47;;;;;;;-145.69;100.00;72240.22;5075294;28;20199;-74
2022/04/15 03:06:02;;;;;;;8.47;4.20;;;;;;;-145.69;100.00;72238.22;5075757;28;20205;-74
2022/04/15 03:08:31;;;;;;;7.90;4.20;;;;;;;-145.69;100.00;72238.22;5075449;28;20199;-74
2022/04/15 03:11:00;;;;;;;6.33;3.60;;;;;;;-145.69;100.00;72238.22;5075309;28;20565;-74
2022/04/15 03:13:26;;;;;;;7.47;3.97;;;;;;;-145.69;100.00;72234.25;5075365;28;20203;-74
2022/04/15 03:15:53;;;;;;;6.43;3.40;;;;;;;-145.69;100.00;72226.28;5075121;28;20251;-74
2022/04/15 03:18:20;;;;;;;6.97;2.70;;;;;;;-145.69;100.00;72226.28;5075574;28;20195;-74
2022/04/15 03:20:47;;;;;;;7.13;3.60;;;;;;;-145.69;100.00;72216.34;5075045;28;20223;-74
2022/04/15 03:23:15;;;;;;;6.63;3.17;;;;;;;-145.69;100.00;72220.31;5075145;28;20248;-74
2022/04/15 03:25:43;;;;;;;6.03;3.80;;;;;;;-145.69;100.00;72214.34;5075221;28;20195;-74
2022/04/15 03:28:09;;;;;;;12.53;4.27;;;;;;;-145.69;100.00;72208.38;5075119;28;20225;-75
2022/04/15 03:30:35;;;;;;;5.10;3.13;;;;;;;-145.69;100.00;72202.41;5074993;28;20210;-75
2022/04/15 03:33:02;;;;;;;5.73;3.13;;;;;;;-145.69;100.00;72206.38;5075226;28;20199;-75
2022/04/15 03:35:30;;;;;;;10.30;3.67;;;;;;;-145.69;100.00;72208.38;5074980;28;20206;-75
2022/04/15 03:37:57;;;;;;;9.60;3.63;;;;;;;-145.69;100.00;72210.38;5074630;28;20194;-75
2022/04/15 03:40:24;;;;;;;10.00;3.60;;;;;;;-145.69;100.00;72218.31;5074909;28;20223;-74
2022/04/15 03:42:53;;;;;;;6.03;2.70;;;;;;;-145.69;100.00;72216.34;5074788;28;20300;-74
2022/04/15 03:45:22;;;;;;;5.03;2.60;;;;;;;-145.69;100.00;72236.22;5074723;28;20561;-74
2022/04/15 03:47:48;;;;;;;4.07;2.90;;;;;;;-145.69;100.00;72246.19;5074698;28;20199;-74
2022/04/15 03:50:16;;;;;;;5.47;3.77;;;;;;;-145.69;100.00;72248.19;5072609;28;20207;-75
2022/04/15 03:52:46;;;;;;;7.37;4.23;;;;;;;-145.69;100.00;72256.13;5074681;28;20207;-74
2022/04/15 03:55:14;;;;;;;4.43;3.07;;;;;;;-145.69;100.00;72278.03;5074273;28;20726;-74
2022/04/15 03:57:41;;;;;;;5.83;3.57;;;;;;;-145.69;100.00;72286.00;5074559;28;20203;-74
2022/04/15 04:00:11;;;;;;;6.60;3.10;;;;;;;-145.69;100.00;72287.97;5074283;28;20272;-74
2022/04/15 04:02:37;;;;;;;7.67;3.90;;;;;;;-145.69;100.00;72289.97;5074515;28;20240;-75
2022/04/15 04:05:05;;;;;;;9.07;4.80;;;;;;;-145.69;100.00;72280.03;5074448;28;20199;-74
2022/04/15 04:07:32;;;;;;;11.33;4.53;;;;;;;-145.69;100.00;72282.00;5074394;28;20604;-74
2022/04/15 04:09:58;;;;;;;8.83;4.77;;;;;;;-145.69;100.00;72287.97;5074152;28;20207;-74
2022/04/15 04:12:25;;;;;;;15.73;6.13;;;;;;;-145.69;100.00;72276.03;5074200;28;20195;-74
2022/04/15 04:14:51;;;;;;;13.07;6.17;;;;;;;-145.69;100.00;72280.03;5064596;28;20196;-74
2022/04/15 04:17:19;;;;;;;11.07;5.83;;;;;;;-145.69;100.00;72282.00;5054120;28;20228;-74
2022/04/15 04:19:47;;;;;;;12.73;6.53;;;;;;;-145.69;100.00;72295.94;5054085;28;20227;-74
2022/04/15 04:22:13;;;;;;;12.47;4.23;;;;;;;-145.69;100.00;72289.97;5054146;28;20196;-74
2022/04/15 04:24:40;;;;;;;11.30;4.67;;;;;;;-145.69;100.00;72297.94;5053603;28;20202;-74
2022/04/15 04:27:06;;;;;;;7.37;4.00;;;;;;;-145.69;100.00;72309.88;5055268;28;20215;-74
2022/04/15 04:29:33;;;;;;;17.67;6.07;;;;;;;-145.69;100.00;72325.81;5074171;28;20260;-74
2022/04/15 04:31:59;;;;;;;17.43;7.10;;;;;;;-145.69;100.00;72325.81;5073803;28;20711;-74
2022/04/15 04:34:27;;;;;;;14.50;6.13;;;;;;;-145.69;100.00;72337.75;5073922;28;20569;-74
2022/04/15 04:36:56;;;;;;;19.17;7.43;;;;;;;-145.69;100.00;72339.72;5073789;28;20199;-74
2022/04/15 04:39:25;;;;;;;12.97;5.90;;;;;;;-145.69;100.00;72349.69;5073484;28;20296;-74
2022/04/15 04:41:52;;;;;;;19.43;8.43;;;;;;;-145.69;100.00;72349.69;5073867;28;20198;-74
2022/04/15 04:44:19;;;;;;;16.83;7.93;;;;;;;-145.69;100.00;72357.66;5073481;28;20588;-74
2022/04/15 04:46:47;;;;;;;15.43;8.20;;;;;;;-145.69;100.00;72361.63;5073679;28;20206;-74
2022/04/15 04:49:14;;;;;;;13.30;7.23;;;;;;;-145.69;100.00;72365.59;5073546;28;20205;-74
2022/04/15 04:51:42;;;;;;;16.43;7.10;;;;;;;-145.69;100.00;72379.53;5073162;28;20281;-74
2022/04/15 04:54:09;;;;;;;15.77;7.97;;;;;;;-145.69;100.00;72387.50;5072986;28;20209;-74
2022/04/15 04:56:36;;;;;;;14.53;7.77;;;;;;;-145.69;100.00;72381.53;5072437;28;20678;-74
2022/04/15 04:59:02;;;;;;;15.73;7.93;;;;;;;-145.69;100.00;72385.50;5073500;28;20202;-74
2022/04/15 05:01:28;;;;;;;18.47;8.20;;;;;;;-145.69;100.00;72377.53;5073252;28;20234;-74
2022/04/15 05:03:55;;;;;;;13.60;7.20;;;;;;;-145.69;100.00;72381.53;5071756;28;20207;-75
2022/04/15 05:06:21;;;;;;;17.27;8.50;;;;;;;-145.69;100.00;72379.53;5070904;28;20198;-74
2022/04/15 05:08:51;;;;;;;18.13;7.47;;;;;;;-145.69;100.00;72387.50;5073066;28;20199;-75
2022/04/15 05:11:17;;;;;;;25.53;8.50;;;;;;;-145.69;100.00;72385.50;5072977;28;20230;-74
2022/04/15 05:13:44;;;;;;;15.93;7.37;;;;;;;-145.69;100.00;72389.50;5073086;28;20563;-74
2022/04/15 05:16:11;;;;;;;20.77;6.77;;;;;;;-145.69;100.00;72393.47;5073079;28;20234;-74
2022/04/15 05:18:41;;;;;;;17.03;7.53;;;;;;;-145.69;100.00;72401.44;5073134;28;20653;-75
2022/04/15 05:21:07;;;;;;;15.63;7.10;;;;;;;-145.69;100.00;72409.38;5073256;28;20233;-75
2022/04/15 05:23:37;;;;;;;11.17;5.37;;;;;;;-145.69;100.00;72409.38;5072995;28;20225;-74
2022/04/15 05:26:05;;;;;;;12.10;5.97;;;;;;;-145.69;100.00;72405.41;5072962;28;20672;-75
2022/04/15 05:28:35;;;;;;;8.33;5.30;;;;;;;-145.69;100.00;72409.38;5073099;28;20609;-74
2022/04/15 05:31:01;;;;;;;12.20;5.67;;;;;;;-145.69;100.00;72409.38;5072940;28;20210;-74
2022/04/15 05:33:27;;;;;;;14.40;5.17;;;;;;;-145.69;100.00;72409.38;5072835;28;20613;-74
2022/04/15 05:35:54;;;;;;;12.40;4.93;;;;;;;-145.69;100.00;72405.41;5073209;28;20195;-74
2022/04/15 05:38:20;;;;;;;12.43;5.53;;;;;;;-145.69;100.00;72395.47;5072746;28;20190;-75
2022/04/15 05:40:47;;;;;;;8.03;4.67;;;;;;;-145.69;100.00;72387.50;5072974;28;20253;-74
2022/04/15 05:43:17;;;;;;;12.37;5.47;;;;;;;-145.69;100.00;72373.56;5072633;28;20256;-74
2022/04/15 05:45:47;;;;;;;11.37;6.23;;;;;;;-145.69;100.00;72357.66;5072388;28;20202;-74
2022/04/15 05:48:14;;;;;;;10.33;5.20;;;;;;;-145.69;100.00;72347.69;5072570;28;20206;-74
2022/04/15 05:50:40;;;;;;;10.73;5.23;;;;;;;-145.69;100.00;72339.72;5072609;28;20202;-74
2022/04/15 05:53:07;;;;;;;7.43;4.90;;;;;;;-145.69;100.00;72327.78;5072255;28;20206;-74
2022/04/15 05:55:35;;;;;;;8.47;4.63;;;;;;;-145.69;100.00;72309.88;5072039;28;20198;-74
2022/04/15 05:58:02;;;;;;;11.47;4.83;;;;;;;-145.69;100.00;72287.97;5072411;28;20203;-74
2022/04/15 06:00:30;;;;;;;7.47;4.37;;;;;;;-145.69;100.00;72260.13;5072310;28;20284;-74
2022/04/15 06:02:56;;;;;;;6.63;4.43;;;;;;;-145.69;100.00;72232.25;5072488;28;20195;-74
2022/04/15 06:05:24;;;;;;;10.27;4.53;;;;;;;-145.69;100.00;72210.38;5072238;28;20209;-75
2022/04/15 06:07:51;;;;;;;8.60;4.23;;;;;;;-145.69;100.00;72182.50;5072686;28;20206;-75
2022/04/15 06:10:18;;;;;;;7.13;3.63;;;;;;;-145.69;100.00;72150.66;5072531;28;20195;-75
2022/04/15 06:13:06;;;;;;;8.77;3.60;;;;;;;-145.69;100.00;72142.69;5073847;28;20190;-75
2022/04/15 06:15:34;;;;;;;7.00;3.70;;;;;;;-145.69;100.00;72136.72;5076574;28;20230;-75
2022/04/15 06:18:04;;;;;;;8.50;3.87;;;;;;;-145.69;100.00;72138.72;5073912;28;20340;-75
2022/04/15 06:20:31;;;;;;;8.90;4.07;;;;;;;-145.69;100.00;72122.78;5056508;28;20223;-74
2022/04/15 06:22:57;;;;;;;10.13;4.50;;;;;;;-145.69;100.00;72081.00;5055848;28;20204;-75
2022/04/15 06:25:27;;;;;;;8.40;5.10;;;;;;;-145.69;100.00;72063.09;5056257;28;20726;-75
2022/04/15 06:27:56;;;;;;;9.10;5.27;;;;;;;-145.69;100.00;72051.16;5056433;28;20199;-75
2022/04/15 06:30:24;;;;;;;7.40;4.23;;;;;;;-145.69;100.00;72027.25;5074427;28;20202;-75
2022/04/15 06:32:52;;;;;;;11.17;4.93;;;;;;;-145.69;100.00;72035.22;5076235;28;20199;-75
2022/04/15 06:35:19;;;;;;;9.67;4.97;;;;;;;-145.69;100.00;72019.31;5076132;28;20206;-75
2022/04/15 06:37:46;;;;;;;6.03;4.00;;;;;;;-145.69;100.00;71997.41;5075981;28;20566;-75
2022/04/15 06:40:15;;;;;;;7.90;3.13;;;;;;;-145.69;100.00;71987.47;5076115;28;20227;-75
2022/04/15 06:42:42;;;;;;;3.25;2.35;;;;;;;-145.69;100.00;71967.56;5076178;28;20203;-75
2022/04/15 06:45:11;;;;;;;7.45;4.05;;;;;;;-145.69;100.00;71957.59;5075963;28;20228;-75
2022/04/15 06:47:37;;;;;;;6.50;2.67;;;;;;;-145.69;100.00;71931.72;5075702;28;20260;-75
2022/04/15 06:50:06;;;;;;;7.47;3.58;;;;;;;-145.69;100.00;71931.72;5076363;28;20202;-75
2022/04/15 06:52:36;;;;;;;8.95;4.82;;;;;;;-145.69;100.00;71945.66;5075685;28;20228;-75
2022/04/15 06:55:03;;;;;;;13.98;5.93;;;;;;;-145.69;100.00;71925.75;5075962;28;20199;-75
2022/04/15 06:57:31;;;;;;;14.25;6.75;;;;;;;-145.69;100.00;71872.03;5075823;28;20213;-75
2022/04/15 06:59:57;;;;;;;13.27;7.05;;;;;;;-145.69;100.00;71816.31;5075680;28;20203;-75
2022/04/15 07:02:26;;;;;;;13.80;6.03;;;;;;;-145.69;100.00;71768.53;5075641;28;20252;-75
2022/04/15 07:04:53;;;;;;;9.57;5.18;;;;;;;-145.69;100.00;71708.84;5075127;28;20286;-75
2022/04/15 07:07:21;;;;;;;12.52;6.15;;;;;;;-145.69;100.00;71688.94;5075527;28;20256;-75
2022/04/15 07:09:49;;;;;;;10.85;5.95;;;;;;;-145.69;98.32;71661.09;5075445;28;20657;-75
2022/04/15 07:12:16;;;;;;;17.95;6.15;;;;;;;-145.69;94.64;71641.19;5075542;28;20213;-75
2022/04/15 07:14:42;;;;;;;11.10;5.70;;;;;;;-145.69;96.14;71621.28;5075239;28;20199;-75
2022/04/15 07:17:09;;;;;;;11.40;5.00;;;;;;;-145.69;89.78;71605.38;5075428;28;20221;-75
2022/04/15 07:19:36;;;;;;;9.43;4.93;;;;;;;-145.69;90.01;71603.38;5074976;28;20199;-75
2022/04/15 07:22:05;;;;;;;9.98;4.90;;;;;;;-145.69;86.63;71601.38;5075221;28;20227;-75
2022/04/15 07:24:33;;;;;;;10.45;4.75;;;;;;;-145.69;90.30;71581.50;5074108;28;20703;-75
2022/04/15 07:26:59;;;;;;;8.57;4.40;;;;;;;-145.69;90.76;71565.56;5075123;28;20658;-75
2022/04/15 07:29:26;;;;;;;11.77;4.95;;;;;;;-145.69;86.88;71573.53;5075233;28;20198;-75
2022/04/15 07:31:52;;;;;;;8.05;4.78;;;;;;;-145.69;86.67;71589.44;5075162;28;20643;-74
2022/04/15 07:34:19;;;;;;;8.52;4.55;;;;;;;-145.69;88.46;71585.47;5073776;28;20210;-75
2022/04/15 07:36:53;;;;;;;10.93;4.70;;;;;;;-145.69;89.58;71637.19;5074930;28;20209;-75
2022/04/15 07:39:20;;;;;;;10.20;5.05;;;;;;;-145.69;85.48;71680.97;5075059;28;20248;-75
2022/04/15 07:41:48;;;;;;;13.25;5.55;;;;;;;-145.69;86.40;71692.94;5074913;28;20242;-76
2022/04/15 07:44:15;;;;;;;10.38;5.22;;;;;;;-145.69;87.54;71682.97;5074938;28;20234;-74
2022/04/15 07:46:44;;;;;;;12.00;5.88;;;;;;;-145.69;84.87;71680.97;5074836;28;20260;-74
2022/04/15 07:49:11;;;;;;;11.98;6.20;;;;;;;-145.69;85.33;71692.94;5074927;28;20605;-74
2022/04/15 07:51:38;;;;;;;12.65;5.20;;;;;;;-145.69;90.45;71712.81;5074157;28;20199;-75
2022/04/15 07:54:07;;;;;;;11.05;5.43;;;;;;;-145.69;87.77;71669.03;5073488;28;20199;-74
2022/04/15 07:56:33;;;;;;;10.82;6.10;;;;;;;-145.69;83.06;71615.31;5074347;28;20316;-74
2022/04/15 07:59:02;;;;;;;12.60;5.90;;;;;;;-145.69;81.44;71623.28;5070555;28;20658;-74
2022/04/15 08:01:28;;;;;;;9.57;5.53;;;;;;;-145.69;76.92;71597.41;5073667;28;20287;-74
2022/04/15 08:03:55;;;;;;;11.73;5.60;;;;;;;-145.69;80.66;71573.53;5072450;28;20664;-74
2022/04/15 08:06:23;;;;;;;10.70;5.90;;;;;;;-145.69;78.03;71567.56;5074317;28;20257;-74
2022/04/15 08:08:49;;;;;;;9.88;5.38;;;;;;;-145.69;77.41;71537.72;5074502;28;20281;-74
2022/04/15 08:11:16;;;;;;;11.65;6.22;;;;;;;-145.69;78.02;71569.53;5074435;28;20202;-74
2022/04/15 08:13:42;;;;;;;14.85;6.22;;;;;;;-145.69;76.26;71545.66;5074239;28;20205;-74
2022/04/15 08:16:11;;;;;;;11.35;5.93;;;;;;;-145.69;73.89;71587.47;5073191;28;20231;-74
2022/04/15 08:18:37;;;;;;;11.95;6.03;;;;;;;-145.69;76.43;71569.53;5072159;28;20202;-74
2022/04/15 08:21:04;;;;;;;14.98;6.28;;;;;;;-145.69;75.21;71593.44;5072235;28;20231;-74
2022/04/15 08:23:30;;;;;;;11.52;6.10;;;;;;;-145.69;74.86;71621.28;5068059;28;20194;-74
2022/04/15 08:25:57;;;;;;;10.30;5.82;;;;;;;-145.69;75.68;71633.22;5052011;28;20269;-74
2022/04/15 08:28:24;;;;;;;16.05;5.57;;;;;;;-145.69;75.18;71581.50;5052442;28;20210;-74
2022/04/15 08:30:50;;;;;;;11.00;5.88;;;;;;;-145.69;72.06;71529.75;5052711;28;20203;-74
2022/04/15 08:33:18;;;;;;;13.38;5.75;;;;;;;-145.69;74.13;71589.44;5053850;28;20261;-74
2022/04/15 08:35:46;;;;;;;14.77;6.00;;;;;;;-145.69;72.58;71549.66;5053737;28;20208;-73
2022/04/15 08:38:13;;;;;;;10.10;5.50;;;;;;;-145.69;72.83;71587.47;5053888;28;20218;-74
2022/04/15 08:40:43;;;;;;;10.13;4.78;;;;;;;-145.69;72.82;71549.66;5053703;28;20205;-74
2022/04/15 08:43:11;;;;;;;11.07;5.47;;;;;;;-145.69;75.81;71505.88;5053685;28;20206;-74
2022/04/15 08:45:41;;;;;;;11.13;6.00;;;;;;;-145.69;72.25;71529.75;5053852;28;20203;-74
2022/04/15 08:48:09;;;;;;;10.90;5.30;;;;;;;-145.69;74.33;71537.72;5053612;28;20245;-74
2022/04/15 08:50:37;;;;;;;10.75;5.93;;;;;;;-145.69;74.61;71535.72;5053660;28;20207;-74
2022/04/15 08:53:04;;;;;;;10.27;5.10;;;;;;;-145.69;74.80;71472.03;5062668;28;20194;-74
2022/04/15 08:55:31;;;;;;;10.38;5.40;;;;;;;-145.69;72.49;71438.22;5072929;28;20282;-74
2022/04/15 08:57:59;;;;;;;9.57;5.65;;;;;;;-145.69;70.14;71458.09;5073473;28;20190;-74
2022/04/15 09:00:27;;;;;;;9.15;5.25;;;;;;;-145.69;69.35;71483.97;5073471;28;20195;-74
2022/04/15 09:02:55;;;;;;;9.05;4.65;;;;;;;-145.69;71.26;71426.28;5073301;28;20703;-74
2022/04/15 09:05:23;;;;;;;11.35;5.22;;;;;;;-145.69;65.88;71414.34;5073477;28;20203;-74
2022/04/15 09:08:02;;;;;;;11.73;5.72;;;;;;;-145.69;65.68;71390.47;5073230;28;20203;-74
2022/04/15 09:10:28;;;;;;;14.10;6.55;;;;;;;-145.69;69.35;71420.31;5072943;28;20290;-74
2022/04/15 09:12:56;;;;;;;8.88;5.28;;;;;;;-145.69;70.30;71388.47;5073153;28;20205;-74
2022/04/15 09:15:22;;;;;;;12.15;6.20;;;;;;;-145.69;68.71;71420.31;5072887;28;20229;-74
2022/04/15 09:17:51;;;;;;;11.90;6.18;;;;;;;-145.69;71.69;71406.38;5072758;28;20664;-74
2022/04/15 09:20:18;;;;;;;12.50;6.05;;;;;;;-145.69;69.59;71392.44;5072258;28;20289;-74
2022/04/15 09:22:45;;;;;;;13.73;7.03;;;;;;;-145.69;68.05;71404.38;5072808;28;20268;-74
2022/04/15 09:25:14;;;;;;;11.70;7.13;;;;;;;-145.69;67.72;71454.13;5073198;28;20202;-74
2022/04/15 09:27:41;;;;;;;10.60;5.95;;;;;;;-145.69;68.99;71438.22;5072493;28;20282;-75
2022/04/15 09:30:08;;;;;;;11.60;6.28;;;;;;;-145.69;65.36;71394.44;5072607;28;20199;-74
2022/04/15 09:32:35;;;;;;;11.48;6.38;;;;;;;-145.69;63.85;71400.41;5072823;28;20195;-74
2022/04/15 09:35:03;;;;;;;11.40;5.90;;;;;;;-145.69;62.43;71458.09;5072602;28;20190;-74
2022/04/15 09:37:32;;;;;;;12.73;6.50;;;;;;;-145.69;66.61;71521.78;5072874;28;20202;-74
2022/04/15 09:40:09;;;;;;;12.18;6.00;;;;;;;-145.69;58.98;71474.03;5072722;28;20202;-75
2022/04/15 09:42:45;;;;;;;11.07;6.20;;;;;;;-145.69;64.73;71489.94;5071579;28;20317;-74
2022/04/15 09:45:13;;;;;;;13.88;6.53;;;;;;;-145.69;67.04;71468.06;5071605;28;20289;-76
2022/04/15 09:47:40;;;;;;;11.15;6.28;;;;;;;-145.69;62.28;71487.97;5071023;28;20286;-74
2022/04/15 09:50:08;;;;;;;12.38;6.82;;;;;;;-145.69;63.99;71474.03;5072422;28;20222;-75
2022/04/15 09:52:35;;;;;;;10.77;5.93;;;;;;;-145.69;66.17;71434.22;5071035;28;20182;-74
2022/04/15 09:55:02;;;;;;;11.77;5.82;;;;;;;-145.69;63.84;71438.22;5072770;28;20210;-74
2022/04/15 09:57:33;;;;;;;11.98;5.95;;;;;;;-145.69;62.44;71398.41;5069675;28;20273;-75
2022/04/15 10:00:04;;;;;;;8.40;5.32;;;;;;;-145.69;63.94;71416.31;5072063;28;20193;-74
2022/04/15 10:02:35;;;;;;;9.82;5.88;;;;;;;-145.69;64.17;71442.19;5071773;28;20719;-74
2022/04/15 10:05:03;;;;;;;13.55;6.10;;;;;;;-145.69;63.70;71470.06;5072449;28;20195;-74
2022/04/15 10:07:31;;;;;;;10.30;5.65;;;;;;;-145.69;64.70;71470.06;5072518;28;20206;-74
2022/04/15 10:09:59;;;;;;;10.43;5.38;;;;;;;-145.69;63.74;71478.00;5072739;28;20207;-75
2022/04/15 10:12:25;;;;;;;9.93;5.03;;;;;;;-145.69;63.49;71436.22;5071484;28;20236;-74
2022/04/15 10:14:52;;;;;;;9.88;5.20;;;;;;;-145.69;61.12;71392.44;5072218;28;20203;-75
2022/04/15 10:17:23;;;;;;;8.38;4.88;;;;;;;-145.69;63.46;71368.56;5072415;28;20240;-74
2022/04/15 10:19:49;;;;;;;6.20;4.40;;;;;;;-145.69;60.79;71340.72;5072464;28;20201;-73
2022/04/15 10:22:17;;;;;;;11.30;4.55;;;;;;;-145.69;62.89;71302.91;5072081;28;20580;-74
2022/04/15 10:24:44;;;;;;;8.10;5.32;;;;;;;-145.69;61.46;71346.69;5071971;28;20199;-74
2022/04/15 10:27:14;;;;;;;9.55;5.47;;;;;;;-145.69;62.41;71338.72;5071913;28;20604;-74
2022/04/15 10:29:40;;;;;;;9.97;5.80;;;;;;;-145.69;64.91;71428.25;5070722;28;20434;-74
2022/04/15 10:32:14;;;;;;;10.70;5.88;;;;;;;-145.69;62.62;71372.53;5071305;28;20199;-74
2022/04/15 10:34:48;;;;;;;9.52;4.70;;;;;;;-145.69;58.78;71422.28;5054871;28;20285;-74
2022/04/15 10:37:15;;;;;;;9.82;4.50;;;;;;;-145.69;61.23;71364.59;5060951;28;20254;-74
2022/04/15 10:39:47;;;;;;;7.75;4.63;;;;;;;-145.69;60.45;71364.59;5071860;28;20272;-74
2022/04/15 10:42:18;;;;;;;9.05;4.43;;;;;;;-145.69;58.58;71298.94;5071633;28;20257;-74
2022/04/15 10:44:45;;;;;;;7.80;4.75;;;;;;;-145.69;58.62;71275.03;5072087;28;20191;-76
2022/04/15 10:47:26;;;;;;;10.30;4.68;;;;;;;-145.69;54.96;71290.97;5071229;28;20657;-75
2022/04/15 10:49:55;;;;;;;10.82;5.20;;;;;;;-145.69;54.96;71390.47;5062942;28;20621;-75
2022/04/15 10:52:25;;;;;;;7.85;4.53;;;;;;;-145.69;56.16;71330.75;5071649;28;20195;-75
2022/04/15 10:54:53;;;;;;;7.93;5.13;;;;;;;-145.69;56.45;71326.78;5071575;28;20217;-75
2022/04/15 10:57:22;;;;;;;9.65;4.90;;;;;;;-145.69;53.52;71290.97;5071748;28;20530;-76
2022/04/15 11:02:40;;;;;;;7.50;4.22;;;;;;;-145.69;52.89;71294.94;5074863;28;20299;-75
2022/04/15 11:05:11;;;;;;;5.80;3.83;;;;;;;-145.69;51.02;71279.03;5059376;28;20214;-75
2022/04/15 11:07:58;;;;;;;9.98;3.80;;;;;;;-145.69;52.37;71346.69;5060487;28;20279;-75
2022/04/15 11:10:46;;;;;;;9.15;3.53;;;;;;;-145.69;49.81;71283.00;5063782;28;20199;-75
2022/04/15 11:13:32;;;;;;;5.72;3.50;;;;;;;-145.69;49.28;71330.75;5061366;28;20558;-76
2022/04/15 11:16:00;;;;;;;9.20;4.18;;;;;;;-145.69;51.09;71340.72;5067570;28;20219;-75